Terminal Aerodrome Forecast
Issued by NWS

Home | Current Version | Previous Version | Graphics & Text | Print | Product List | Glossary On
Versions: 1 2 3 4 5 6 7 8 9 10 11 12 13 14 15 16 17 18 19 20 21 22
501
FTUS43 KABR 131138
TAFATY
TAF
KATY 131138Z 1312/1412 15004KT P6SM OVC120
     FM131500 15009KT P6SM OVC050
     FM140000 16022G28KT 5SM -SN OVC015
     FM140300 16023G29KT 1 1/2SM -SN OVC007=

USA.gov is the U.S. government's official web portal to all federal, state and local government web resources and services.